createdAt,value
2023-05-22T00:00:33.784Z,95268.91
2023-05-22T00:03:27.840Z,95269.81
2023-05-22T00:06:17.770Z,95266.50
2023-05-22T00:09:00.814Z,95269.16
2023-05-22T00:11:47.788Z,95269.19
2023-05-22T00:14:20.897Z,95260.72
2023-05-22T00:17:07.867Z,95265.03
2023-05-22T00:19:40.888Z,95263.38
2023-05-22T00:22:27.790Z,95262.63
2023-05-22T00:25:07.798Z,95261.78
2023-05-22T00:28:01.817Z,95263.53
2023-05-22T00:30:55.816Z,95265.31
2023-05-22T00:33:42.799Z,95261.13
2023-05-22T00:36:16.034Z,95256.06
2023-05-22T00:39:02.788Z,95256.91
2023-05-22T00:41:42.822Z,95262.13
2023-05-22T00:44:29.808Z,95263.91
2023-05-22T00:47:02.985Z,95261.34
2023-05-22T00:49:50.807Z,95259.66
2023-05-22T00:52:30.810Z,95256.28
2023-05-22T00:55:18.816Z,95257.19
2023-05-22T00:57:52.030Z,95264.00
2023-05-22T01:00:41.059Z,95255.53
2023-05-22T01:03:34.897Z,95260.69
2023-05-22T01:06:24.829Z,95258.16
2023-05-22T01:09:04.824Z,95262.44
2023-05-22T01:12:17.811Z,95250.59
2023-05-22T01:15:33.814Z,95247.19
2023-05-22T01:18:37.283Z,95244.66
2023-05-22T01:21:52.833Z,95245.59
2023-05-22T01:24:50.816Z,95245.63
2023-05-22T01:27:49.831Z,95246.53
2023-05-22T01:31:14.801Z,95253.41
2023-05-22T01:34:09.825Z,95254.38
2023-05-22T01:36:59.817Z,95258.75
2023-05-22T01:39:35.010Z,95256.28
2023-05-22T01:42:21.841Z,95257.22
2023-05-22T01:45:01.843Z,95265.75
2023-05-22T01:47:55.930Z,95261.50
2023-05-22T01:50:42.844Z,95270.13
2023-05-22T01:53:46.837Z,95266.81
2023-05-22T01:56:43.838Z,95258.41
2023-05-22T01:59:25.493Z,95255.13
2023-05-22T02:02:14.841Z,95257.78
2023-05-22T02:04:51.998Z,95249.31
2023-05-22T02:07:45.203Z,95253.66
2023-05-22T02:10:26.823Z,95247.75
2023-05-22T02:13:06.862Z,95254.53
2023-05-22T02:15:47.015Z,95252.06
2023-05-22T02:18:26.864Z,95251.25
2023-05-22T02:21:06.849Z,95249.63
2023-05-22T02:23:46.849Z,95248.81
2023-05-22T02:26:40.880Z,95246.31
2023-05-22T02:29:30.886Z,95251.47
2023-05-22T02:32:10.860Z,95250.69
2023-05-22T02:34:57.848Z,95250.75
2023-05-22T02:37:37.919Z,95254.16
2023-05-22T02:40:31.914Z,95249.06
2023-05-22T02:43:18.841Z,95249.06
2023-05-22T02:45:58.857Z,95245.69
2023-05-22T02:48:52.868Z,95249.97
2023-05-22T02:51:42.862Z,95246.63
2023-05-22T02:54:16.448Z,95246.63
2023-05-22T02:57:03.909Z,95242.38
2023-05-22T02:59:37.485Z,95243.25
2023-05-22T03:02:23.866Z,95250.00
2023-05-22T03:04:59.179Z,95243.25
2023-05-22T03:07:48.660Z,95250.09
2023-05-22T03:10:22.017Z,95249.25
2023-05-22T03:13:08.876Z,95249.28
2023-05-22T03:15:42.039Z,95244.22
2023-05-22T03:18:28.888Z,95235.72
2023-05-22T03:21:01.989Z,95237.44
2023-05-22T03:23:48.879Z,95242.53
2023-05-22T03:26:22.047Z,95235.75
2023-05-22T03:29:11.891Z,95231.50
2023-05-22T03:31:45.014Z,95223.84
2023-05-22T03:34:33.876Z,95233.19
2023-05-22T03:37:13.888Z,95239.97
2023-05-22T03:40:07.909Z,95228.91
2023-05-22T03:42:55.953Z,95236.56
2023-05-22T03:45:29.063Z,95239.91
2023-05-22T03:48:16.892Z,95238.19
2023-05-22T03:50:50.034Z,95235.66
2023-05-22T03:53:36.892Z,95227.13
2023-05-22T03:56:10.065Z,95227.97
2023-05-22T03:59:03.950Z,95227.97
2023-05-22T04:01:58.001Z,95221.19
2023-05-22T04:04:46.032Z,95223.78
2023-05-22T04:07:26.882Z,95226.31
2023-05-22T04:10:32.915Z,95219.50
2023-05-22T04:13:12.886Z,95223.75
2023-05-22T04:15:59.992Z,95223.63
2023-05-22T04:18:39.955Z,95226.94
2023-05-22T04:21:33.943Z,95219.19
2023-05-22T04:24:20.975Z,95220.78
2023-05-22T04:26:54.131Z,95218.97
2023-05-22T04:29:42.990Z,95213.75
2023-05-22T04:32:25.126Z,95211.88
2023-05-22T04:35:18.974Z,95209.94
2023-05-22T04:38:09.991Z,95200.25
2023-05-22T04:40:49.960Z,95203.25
2023-05-22T04:43:38.934Z,95198.59
2023-05-22T04:46:13.050Z,95193.13
2023-05-22T04:48:59.945Z,95196.97
2023-05-22T04:51:41.944Z,95194.00
2023-05-22T04:54:28.982Z,95190.09
2023-05-22T04:57:12.765Z,95193.88
2023-05-22T05:00:07.978Z,95201.75
2023-05-22T05:02:54.997Z,95196.03
2023-05-22T05:05:28.047Z,95193.75
2023-05-22T05:08:14.977Z,95181.94
2023-05-22T05:10:48.082Z,95184.75
2023-05-22T05:13:34.972Z,95189.22
2023-05-22T05:16:08.188Z,95188.56
2023-05-22T05:18:55.029Z,95194.72
2023-05-22T05:21:28.184Z,95193.25
2023-05-22T05:24:16.755Z,95190.78
2023-05-22T05:26:53.063Z,95190.19
2023-05-22T05:29:41.951Z,95190.59
2023-05-22T05:32:22.014Z,95186.59
2023-05-22T05:35:11.996Z,95191.13
2023-05-22T05:37:51.946Z,95190.69
2023-05-22T05:40:39.309Z,95190.34
2023-05-22T05:43:22.981Z,95189.63
2023-05-22T05:46:17.049Z,95188.34
2023-05-22T05:49:14.671Z,95179.16
2023-05-22T05:52:00.981Z,95183.63
2023-05-22T05:54:46.656Z,95175.00
2023-05-22T05:57:36.981Z,95176.66
2023-05-22T06:00:17.988Z,95166.38
2023-05-22T06:03:12.086Z,95162.72
2023-05-22T06:05:58.995Z,95164.22
2023-05-22T06:08:32.386Z,95161.28
2023-05-22T06:11:21.971Z,95155.09
2023-05-22T06:13:55.150Z,95161.50
2023-05-22T06:16:42.044Z,95155.75
2023-05-22T06:19:15.211Z,95156.75
2023-05-22T06:22:02.008Z,95151.16
2023-05-22T06:24:37.401Z,95149.75
2023-05-22T06:27:24.026Z,95153.44
2023-05-22T06:29:58.128Z,95156.19
2023-05-22T06:32:45.186Z,95155.97
2023-05-22T06:35:19.297Z,95154.38
2023-05-22T06:38:06.003Z,95150.63
2023-05-22T06:40:46.031Z,95153.97
2023-05-22T06:43:26.017Z,95151.63
2023-05-22T06:46:06.038Z,95156.59
2023-05-22T06:48:42.085Z,95158.28
2023-05-22T06:51:29.072Z,95160.75
2023-05-22T06:54:04.296Z,95165.22
2023-05-22T06:56:51.024Z,95163.75
2023-05-22T06:59:34.056Z,95158.97
2023-05-22T07:02:28.062Z,95158.81
2023-05-22T07:05:16.062Z,95159.28
2023-05-22T07:07:50.188Z,95154.94
2023-05-22T07:10:37.373Z,95155.22
2023-05-22T07:13:11.331Z,95164.69
2023-05-22T07:15:58.103Z,95159.66
2023-05-22T07:18:38.065Z,95159.16
2023-05-22T07:21:33.988Z,95153.63
2023-05-22T07:24:22.067Z,95155.25
2023-05-22T07:26:55.182Z,95157.81
2023-05-22T07:29:43.049Z,95151.78
2023-05-22T07:32:16.218Z,95159.22
2023-05-22T07:35:04.065Z,95158.97
2023-05-22T07:37:37.837Z,95151.97
2023-05-22T07:40:27.059Z,95153.75
2023-05-22T07:43:00.180Z,95151.88
2023-05-22T07:45:49.071Z,95147.38
2023-05-22T07:48:30.126Z,95150.41
2023-05-22T07:51:25.056Z,95142.34
2023-05-22T07:54:15.040Z,95143.13
2023-05-22T07:56:52.155Z,95143.25
2023-05-22T08:00:19.022Z,95139.19
2023-05-22T08:03:06.133Z,95143.38
2023-05-22T08:05:39.147Z,95147.19
2023-05-22T08:08:26.126Z,95146.91
2023-05-22T08:13:49.040Z,95136.59
2023-05-22T08:16:22.273Z,95133.72
2023-05-22T08:19:09.215Z,95131.88
2023-05-22T08:21:51.022Z,95139.00
2023-05-22T08:24:45.040Z,95128.63
2023-05-22T08:27:34.386Z,95128.91
2023-05-22T08:30:16.074Z,95128.56
2023-05-22T08:33:10.069Z,95137.28
2023-05-22T08:36:04.138Z,95133.09
2023-05-22T08:38:58.081Z,95123.81
2023-05-22T08:41:52.067Z,95124.03
2023-05-22T08:44:46.059Z,95124.16
2023-05-22T08:47:40.128Z,95132.72
2023-05-22T08:50:34.076Z,95121.47
2023-05-22T08:53:31.052Z,95120.22
2023-05-22T08:56:18.065Z,95124.53
2023-05-22T08:58:52.164Z,95137.31
2023-05-22T09:01:40.198Z,95116.53
2023-05-22T09:04:20.066Z,95114.56
2023-05-22T09:07:14.049Z,95112.31
2023-05-22T09:10:03.164Z,95120.56
2023-05-22T09:12:36.218Z,95121.28
2023-05-22T09:15:27.120Z,95119.81
2023-05-22T09:18:00.276Z,95117.44
2023-05-22T09:20:49.393Z,95113.47
2023-05-22T09:23:24.204Z,95121.22
2023-05-22T09:26:13.401Z,95110.16
2023-05-22T09:28:53.135Z,95105.16
2023-05-22T09:31:54.175Z,95107.44
2023-05-22T09:34:42.095Z,95105.72
2023-05-22T09:37:15.234Z,95110.50
2023-05-22T09:40:03.128Z,95104.88
2023-05-22T09:42:36.220Z,95094.16
2023-05-22T09:45:28.096Z,95103.25
2023-05-22T09:48:01.343Z,95092.47
2023-05-22T09:50:48.111Z,95099.72
2023-05-22T09:53:30.129Z,95098.66
2023-05-22T09:56:38.471Z,95088.56
2023-05-22T09:59:37.124Z,95098.25
2023-05-22T10:02:32.177Z,95089.38
2023-05-22T10:05:30.140Z,95091.88
2023-05-22T10:08:31.137Z,95091.06
2023-05-22T10:11:25.133Z,95083.88
2023-05-22T10:14:19.173Z,95081.09
2023-05-22T10:17:14.152Z,95082.34
2023-05-22T10:20:04.142Z,95087.84
2023-05-22T10:22:39.261Z,95080.78
2023-05-22T10:25:28.143Z,95076.22
2023-05-22T10:28:02.268Z,95074.81
2023-05-22T10:31:25.133Z,95071.06
2023-05-22T10:34:06.282Z,95072.38
2023-05-22T10:37:16.542Z,95075.97
2023-05-22T10:40:10.324Z,95066.88
2023-05-22T10:42:50.146Z,95066.41
2023-05-22T10:45:33.449Z,95057.63
2023-05-22T10:48:10.311Z,95062.53
2023-05-22T10:50:59.919Z,95052.81
2023-05-22T10:53:35.288Z,95051.28
2023-05-22T10:56:25.891Z,95045.75
2023-05-22T10:59:10.585Z,95042.13
2023-05-22T11:02:08.456Z,95044.47
2023-05-22T11:04:43.306Z,95046.84
2023-05-22T11:07:30.168Z,95048.28
2023-05-22T11:10:14.170Z,95044.41
2023-05-22T11:13:18.168Z,95049.00
2023-05-22T11:15:56.330Z,95042.94
2023-05-22T11:18:45.146Z,95039.72
2023-05-22T11:21:26.186Z,95034.22
2023-05-22T11:24:21.166Z,95027.78
2023-05-22T11:27:15.186Z,95038.75
2023-05-22T11:29:50.913Z,95031.19
2023-05-22T11:32:38.285Z,95031.94
2023-05-22T11:35:12.575Z,95033.66
2023-05-22T11:38:01.209Z,95027.75
2023-05-22T11:40:41.306Z,95036.94
2023-05-22T11:43:40.189Z,95037.78
2023-05-22T11:46:15.451Z,95028.53
2023-05-22T11:49:03.185Z,95036.53
2023-05-22T11:51:36.343Z,95036.84
2023-05-22T11:54:26.228Z,95034.88
2023-05-22T11:57:06.210Z,95037.06
2023-05-22T12:00:00.283Z,95034.31
2023-05-22T12:02:53.265Z,95030.22
2023-05-22T12:05:35.190Z,95035.00
2023-05-22T12:08:22.185Z,95024.34
2023-05-22T12:11:00.349Z,95029.94
2023-05-22T12:13:48.194Z,95030.38
2023-05-22T12:16:27.169Z,95035.69
2023-05-22T12:19:18.264Z,95022.00
2023-05-22T12:21:59.185Z,95019.81
2023-05-22T12:24:53.214Z,95021.03
2023-05-22T12:27:26.297Z,95018.50
2023-05-22T12:30:21.203Z,95017.72
2023-05-22T12:33:02.257Z,95018.59
2023-05-22T12:35:56.217Z,95021.34
2023-05-22T12:38:45.209Z,95004.91
2023-05-22T12:41:18.304Z,95013.28
2023-05-22T12:44:05.230Z,95008.88
2023-05-22T12:46:39.431Z,95005.00
2023-05-22T12:49:26.251Z,95014.59
2023-05-22T12:51:59.317Z,95016.69
2023-05-22T12:54:46.254Z,95013.13
2023-05-22T12:57:26.278Z,95011.25
2023-05-22T13:00:21.227Z,95016.66
2023-05-22T13:03:15.220Z,95020.91
2023-05-22T13:06:02.240Z,95006.88
2023-05-22T13:08:35.330Z,95003.00
2023-05-22T13:11:22.243Z,95006.44
2023-05-22T13:13:55.384Z,95014.25
2023-05-22T13:16:42.488Z,95011.81
2023-05-22T13:19:16.399Z,95004.59
2023-05-22T13:22:03.260Z,95004.88
2023-05-22T13:24:36.554Z,94996.53
2023-05-22T13:27:24.248Z,94998.50
2023-05-22T13:29:57.400Z,95004.75
2023-05-22T13:32:44.266Z,94996.47
2023-05-22T13:35:17.348Z,94996.97
2023-05-22T13:38:04.260Z,94998.94
2023-05-22T13:40:45.753Z,94988.06
2023-05-22T13:43:34.261Z,94992.81
2023-05-22T13:46:08.216Z,94990.47
2023-05-22T13:48:55.271Z,94996.81
2023-05-22T13:51:28.462Z,94980.47
2023-05-22T13:54:15.290Z,94981.94
2023-05-22T13:56:48.481Z,94979.34
2023-05-22T13:59:42.247Z,94979.50
2023-05-22T14:02:36.367Z,94971.81
2023-05-22T14:05:23.281Z,94980.63
2023-05-22T14:07:56.855Z,94965.22
2023-05-22T14:10:43.264Z,94964.19
2023-05-22T14:13:16.398Z,94967.63
2023-05-22T14:16:03.279Z,94972.81
2023-05-22T14:18:38.365Z,94976.28
2023-05-22T14:21:28.288Z,94973.22
2023-05-22T14:24:02.552Z,94978.44
2023-05-22T14:26:49.290Z,94971.53
2023-05-22T14:29:29.299Z,94973.69
2023-05-22T14:32:23.300Z,94967.94
2023-05-22T14:35:10.271Z,94966.56
2023-05-22T14:37:44.427Z,94957.34
2023-05-22T14:40:31.297Z,94957.44
2023-05-22T14:43:04.418Z,94954.94
2023-05-22T14:45:51.337Z,94956.81
2023-05-22T14:48:26.645Z,94952.72
2023-05-22T14:51:13.310Z,94959.78
2023-05-22T14:53:46.402Z,94964.97
2023-05-22T14:56:33.306Z,94949.38
2023-05-22T14:59:06.402Z,94949.44
2023-05-22T15:01:56.329Z,94950.31
2023-05-22T15:04:36.321Z,94958.19
2023-05-22T15:07:29.286Z,94955.69
2023-05-22T15:10:09.425Z,94946.41
2023-05-22T15:12:56.318Z,94941.22
2023-05-22T15:15:36.321Z,94939.53
2023-05-22T15:18:30.302Z,94943.34
2023-05-22T15:21:24.321Z,94944.25
2023-05-22T15:24:11.300Z,94940.75
2023-05-22T15:26:44.433Z,94936.38
2023-05-22T15:29:31.326Z,94931.25
2023-05-22T15:32:04.533Z,94930.69
2023-05-22T15:34:51.320Z,94927.53
2023-05-22T15:37:24.452Z,94922.75
2023-05-22T15:40:12.326Z,94928.06
2023-05-22T15:42:52.333Z,94931.69
2023-05-22T15:45:46.392Z,94928.16
2023-05-22T15:48:33.321Z,94922.97
2023-05-22T15:51:16.308Z,94924.81
2023-05-22T15:54:04.329Z,94927.69
2023-05-22T15:56:44.310Z,94926.88
2023-05-22T15:59:38.352Z,94927.69
2023-05-22T16:02:32.391Z,94930.38
2023-05-22T16:05:19.340Z,94934.81
2023-05-22T16:07:52.491Z,94931.59
2023-05-22T16:10:40.329Z,94927.69
2023-05-22T16:13:21.355Z,94934.63
2023-05-22T16:16:15.415Z,94936.41
2023-05-22T16:19:02.361Z,94933.78
2023-05-22T16:21:35.929Z,94936.31
2023-05-22T16:24:22.405Z,94934.75
2023-05-22T16:26:55.595Z,94931.47
2023-05-22T16:29:42.351Z,94936.94
2023-05-22T16:32:15.471Z,94939.72
2023-05-22T16:35:04.734Z,94938.97
2023-05-22T16:37:38.481Z,94940.00
2023-05-22T16:40:25.383Z,94945.53
2023-05-22T16:43:05.363Z,94944.78
2023-05-22T16:45:59.363Z,94945.25
2023-05-22T16:48:53.355Z,94954.31
2023-05-22T16:51:40.393Z,94947.13
2023-05-22T16:54:13.461Z,94953.47
2023-05-22T16:57:00.394Z,94946.13
2023-05-22T16:59:33.604Z,94948.97
2023-05-22T17:02:20.510Z,94964.06
2023-05-22T17:04:54.490Z,94962.47
2023-05-22T17:07:41.373Z,94966.22
2023-05-22T17:10:14.508Z,94959.63
2023-05-22T17:13:01.401Z,94957.47
2023-05-22T17:15:34.490Z,94958.44
2023-05-22T17:18:26.390Z,94962.22
2023-05-22T17:21:00.297Z,94959.06
2023-05-22T17:23:47.402Z,94961.91
2023-05-22T17:26:21.491Z,94969.19
2023-05-22T17:29:08.404Z,94960.72
2023-05-22T17:31:41.568Z,94966.06
2023-05-22T17:34:28.378Z,94968.16
2023-05-22T17:37:08.386Z,94966.72
2023-05-22T17:39:55.398Z,94967.94
2023-05-22T17:42:35.407Z,94969.19
2023-05-22T17:45:29.421Z,94967.91
2023-05-22T17:48:23.420Z,94973.56
2023-05-22T17:51:17.410Z,94972.28
2023-05-22T17:54:05.380Z,94977.94
2023-05-22T17:56:38.534Z,94974.16
2023-05-22T17:59:32.479Z,94972.00
2023-05-22T18:02:19.485Z,94970.03
2023-05-22T18:04:59.404Z,94964.47
2023-05-22T18:07:53.410Z,94964.97
2023-05-22T18:10:47.420Z,94958.47
2023-05-22T18:13:41.408Z,94955.56
2023-05-22T18:16:35.499Z,94959.53
2023-05-22T18:19:29.432Z,94962.56
2023-05-22T18:22:23.413Z,94961.28
2023-05-22T18:25:17.430Z,94965.19
2023-05-22T18:28:11.420Z,94963.75
2023-05-22T18:30:59.408Z,94966.00
2023-05-22T18:33:40.427Z,94968.13
2023-05-22T18:36:27.437Z,94973.56
2023-05-22T18:39:07.419Z,94971.31
2023-05-22T18:41:54.438Z,94974.31
2023-05-22T18:44:28.538Z,94969.34
2023-05-22T18:47:15.525Z,94978.38
2023-05-22T18:49:48.541Z,94972.72
2023-05-22T18:52:35.418Z,94983.31
2023-05-22T18:55:08.679Z,94976.66
2023-05-22T18:57:55.444Z,94977.78
2023-05-22T19:00:31.565Z,94976.38
2023-05-22T19:03:18.456Z,94974.19
2023-05-22T19:05:51.604Z,94975.31
2023-05-22T19:08:40.460Z,94974.88
2023-05-22T19:11:13.543Z,94972.63
2023-05-22T19:14:01.466Z,94978.84
2023-05-22T19:16:43.620Z,94985.25
2023-05-22T19:19:37.530Z,94985.66
2023-05-22T19:22:24.496Z,94985.94
2023-05-22T19:24:57.560Z,94987.09
2023-05-22T19:27:47.465Z,94984.00
2023-05-22T19:30:21.925Z,94982.63
2023-05-22T19:33:09.154Z,94984.63
2023-05-22T19:35:49.467Z,94988.34
2023-05-22T19:38:37.487Z,94985.34
2023-05-22T19:41:10.695Z,94996.06
2023-05-22T19:43:57.454Z,94992.81
2023-05-22T19:46:33.625Z,94999.88
2023-05-22T19:49:13.472Z,94994.94
2023-05-22T19:51:55.977Z,94998.53
2023-05-22T19:54:29.563Z,94999.69
2023-05-22T19:57:16.466Z,94998.25
2023-05-22T19:59:49.609Z,94995.97
2023-05-22T20:02:36.551Z,94997.03
2023-05-22T20:05:13.054Z,95000.72
2023-05-22T20:08:00.543Z,94988.94
2023-05-22T20:10:33.655Z,94987.41
2023-05-22T20:13:20.504Z,94988.53
2023-05-22T20:15:53.665Z,94988.72
2023-05-22T20:18:40.507Z,94987.16
2023-05-22T20:21:14.613Z,94989.09
2023-05-22T20:24:02.483Z,94990.16
2023-05-22T20:26:35.597Z,94988.59
2023-05-22T20:29:22.476Z,94989.66
2023-05-22T20:32:02.546Z,94989.19
2023-05-22T20:34:49.486Z,94984.28
2023-05-22T20:37:33.494Z,94986.88
2023-05-22T20:40:21.507Z,94977.56
2023-05-22T20:42:54.822Z,94981.97
2023-05-22T20:45:41.651Z,94982.19
2023-05-22T20:48:23.489Z,94979.78
2023-05-22T20:51:17.513Z,94987.53
2023-05-22T20:54:06.480Z,94986.84
2023-05-22T20:56:39.582Z,94976.69
2023-05-22T20:59:26.511Z,94979.38
2023-05-22T21:02:06.521Z,94975.22
2023-05-22T21:05:00.542Z,94982.16
2023-05-22T21:07:47.515Z,94979.00
2023-05-22T21:10:20.678Z,94981.66
2023-05-22T21:13:07.511Z,94981.75
2023-05-22T21:15:47.505Z,94982.72
2023-05-22T21:18:34.526Z,94984.59
2023-05-22T21:21:07.653Z,94989.78
2023-05-22T21:23:57.526Z,94983.84
2023-05-22T21:26:37.519Z,94983.97
2023-05-22T21:29:31.508Z,94983.25
2023-05-22T21:32:25.550Z,94980.88
2023-05-22T21:35:19.779Z,94985.25
2023-05-22T21:38:06.515Z,94986.16
2023-05-22T21:40:49.545Z,94992.22
2023-05-22T21:43:43.541Z,94990.75
2023-05-22T21:46:30.581Z,94990.13
2023-05-22T21:49:04.766Z,94988.50
2023-05-22T21:51:51.522Z,94994.56
2023-05-22T21:54:31.527Z,94991.22
2023-05-22T21:57:25.570Z,94984.59
2023-05-22T22:00:19.534Z,94985.72
2023-05-22T22:03:13.734Z,94980.81
2023-05-22T22:06:00.564Z,94980.94
2023-05-22T22:08:33.661Z,94983.56
2023-05-22T22:11:20.550Z,94979.34
2023-05-22T22:13:54.100Z,94969.31
2023-05-22T22:16:42.556Z,94970.34
2023-05-22T22:19:22.571Z,94970.47
2023-05-22T22:22:16.566Z,94968.75
2023-05-22T22:25:03.556Z,94965.44
2023-05-22T22:27:37.637Z,94974.16
2023-05-22T22:30:24.570Z,94964.03
2023-05-22T22:32:58.677Z,94957.28
2023-05-22T22:35:45.574Z,94960.94
2023-05-22T22:38:18.719Z,94957.66
2023-05-22T22:41:06.525Z,94948.41
2023-05-22T22:43:39.654Z,94951.84
2023-05-22T22:46:26.563Z,94943.41
2023-05-22T22:49:01.901Z,94942.63
2023-05-22T22:51:48.595Z,94947.84
2023-05-22T22:54:28.560Z,94945.38
2023-05-22T22:57:15.570Z,94945.50
2023-05-22T22:59:55.546Z,94945.59
2023-05-22T23:02:49.590Z,94944.78
2023-05-22T23:05:43.732Z,94944.81
2023-05-22T23:08:37.584Z,94937.25
2023-05-22T23:11:24.561Z,94933.97
2023-05-22T23:13:57.662Z,94936.72
2023-05-22T23:16:47.561Z,94935.09
2023-05-22T23:19:20.692Z,94924.94
2023-05-22T23:22:07.585Z,94927.63
2023-05-22T23:24:40.793Z,94928.56
2023-05-22T23:27:28.609Z,94922.66
2023-05-22T23:30:01.679Z,94925.25
2023-05-22T23:32:48.593Z,94915.88
2023-05-22T23:35:21.684Z,94915.88
2023-05-22T23:38:08.577Z,94916.88
2023-05-22T23:40:48.594Z,94914.41
2023-05-22T23:43:42.571Z,94914.47
2023-05-22T23:46:30.576Z,94903.41
2023-05-22T23:49:03.733Z,94915.44
2023-05-22T23:51:43.586Z,94923.16
2023-05-22T23:54:23.614Z,94915.56
2023-05-22T23:57:03.587Z,94917.31
2023-05-22T23:59:57.591Z,94914.81
